LIEO Airport Information

Runway Information
Runway 05 Length 9006 ft width 148 ft
Elevation 35 ft Threshold 805 ft Heading 53
Runway 23 Length 9006 ft Width 148 ft
Elevation 19 ft Threshold 495 ft Heading 233
Airport Frequencies
Type APP Name OLBIA RADA Frequency 125.95 MHZ
Type ATIS Name ATIS Frequency 113.9 MHZ
Type TWR Name OLBIA TWR Frequency 118.975 MHZ
Airport Navaids
Type VOR-DME Name Olbia Costa Smeralda Frequency 113900 KHZ
Type NDB Name Olbia Costa Smeralda Frequency 357 KHZ
Airport Weather Information & NOTAM
ADDS - METARS form results

(1626 UTC 30 June 2022)
Data provider http://aviationweather.gov/metar/data/
 
METAR text: LIEO 301620Z 07012KT CAVOK 30/20 Q1012
Conditions at: LIEO (OLBIA/COSTA SMER, IT) observed 1620 UTC 30 June 2022
Temperature: 30.0°C (86°F)
Dewpoint: 20.0°C (68°F) [RH = 55%]
Pressure (altimeter): 29.88 inches Hg (1012.0 mb)
Winds: from the ENE (70 degrees) at 14 MPH (12 knots; 6.2 m/s)
Visibility: 6 or more miles (10+ km)
Ceiling: ceiling and visibility are OK
Clouds: unknown
Weather: no significant weather observed at this time

METAR text: LIEO 301550Z 08011KT CAVOK 31/19 Q1011
Conditions at: LIEO (OLBIA/COSTA SMER, IT) observed 1550 UTC 30 June 2022
Temperature: 31.0°C (88°F)
Dewpoint: 19.0°C (66°F) [RH = 49%]
Pressure (altimeter): 29.85 inches Hg (1011.0 mb)
Winds: from the E (80 degrees) at 13 MPH (11 knots; 5.7 m/s)
Visibility: 6 or more miles (10+ km)
Ceiling: ceiling and visibility are OK
Clouds: unknown
Weather: no significant weather observed at this time

Forecast for: LIEO (OLBIA/COSTA SMER, IT)
Text: TAF LIEO 301100Z 3012/0112 07012KT CAVOK
Forecast period: 1200 to 1800 UTC 30 June 2022
Forecast type: FROM: standard forecast or significant change
Winds: from the ENE (70 degrees) at 14 MPH (12 knots; 6.2 m/s)
Visibility: 6 or more miles (10+ km)
Ceiling: unknown
Clouds: missing
Weather: NSW  (no significant weather)
Text: BECMG 3018/3020 VRB05KT
Forecast period: 1800 UTC 30 June 2022 to 0400 UTC 01 July 2022
Forecast type: BECOMING: Conditions expected to become as follows by 2000 UTC 30 June 2022
Winds: variable direction winds at 6 MPH (5 knots; 2.6 m/s)
Visibility: 6 or more miles (10+ km)
Ceiling: unknown
Clouds: missing
Weather: NSW  (no significant weather)
Text: BECMG 0104/0106 26010KT
Forecast period: 0400 to 1200 UTC 01 July 2022
Forecast type: BECOMING: Conditions expected to become as follows by 0600 UTC 01 July 2022
Winds: from the W (260 degrees) at 12 MPH (10 knots; 5.1 m/s)
Visibility: 6 or more miles (10+ km)
Ceiling: unknown
Clouds: missing
Weather: NSW  (no significant weather)